Terminal Aerodrome Forecast
Issued by NWS Twin Cities, MN

Home | Current Version | Previous Version | Text Only | Print | Product List | Glossary On
Versions: 1 2 3 4 5 6 7 8 9 10 11 12 13 14 15 16 17 18 19 20 21 22 23 24 25
000
FTUS43 KMPX 260520
TAFSTC
TAF
KSTC 260520Z 2606/2706 34006KT 6SM -SHRA BR BKN012 OVC020
      TEMPO 2606/2610 4SM -SHRA OVC007
     FM261000 33005KT 3SM BR OVC007
     FM261600 31008KT P6SM OVC010
     FM261900 28013G20KT P6SM OVC015
     FM262100 29014G21KT P6SM BKN025
     FM270500 29007KT P6SM SCT025=

USA.gov is the U.S. government's official web portal to all federal, state and local government web resources and services.